QFA742 YBSU-YBHM
Flight info
| Callsign | QFA742 |
|---|---|
| Flight time | 1h 11m |
| Altitude | 36000 |
| Route | SU DCT TAPET Q67 OVRON |
| Aircraft | B742/H-SDFHIRWXY/L |
Departure
| Time | 2026-04-26 00:08 |
|---|---|
| Airport | Sunshine Coast Airport (YBSU) |
Arrival
| Time | 2026-04-26 01:19 |
|---|---|
| Airport | Hamilton Island Airport (YBHM) |
| Time | Latitude | Longitude | Altitude | Speed | Heading |
|---|---|---|---|---|---|
| 2026-04-25 23:30 | -26.60598 | 153.08946 | 23 ft | 0 kts | 284° |
| 2026-04-25 23:55 | -26.60599 | 153.08948 | 23 ft | 1 kts | 284° |
| 2026-04-25 23:56 | -26.60602 | 153.08963 | 23 ft | 2 kts | 284° |
| 2026-04-25 23:56 | -26.60606 | 153.08980 | 23 ft | 2 kts | 284° |
| 2026-04-25 23:56 | -26.60610 | 153.08997 | 23 ft | 2 kts | 296° |
| 2026-04-25 23:56 | -26.60618 | 153.09010 | 23 ft | 2 kts | 314° |
| 2026-04-25 23:57 | -26.60630 | 153.09021 | 23 ft | 2 kts | 328° |
| 2026-04-25 23:57 | -26.60643 | 153.09027 | 23 ft | 2 kts | 344° |
| 2026-04-25 23:57 | -26.60658 | 153.09030 | 23 ft | 2 kts | 0° |
| 2026-04-25 23:57 | -26.60671 | 153.09029 | 23 ft | 0 kts | 13° |
| 2026-04-25 23:58 | -26.60675 | 153.09027 | 23 ft | 0 kts | 14° |
| 2026-04-25 23:59 | -26.60674 | 153.09029 | 23 ft | 1 kts | 14° |
| 2026-04-25 23:59 | -26.60644 | 153.09036 | 23 ft | 7 kts | 14° |
| 2026-04-25 23:59 | -26.60603 | 153.09049 | 23 ft | 1 kts | 14° |
| 2026-04-26 00:00 | -26.60586 | 153.09053 | 23 ft | 4 kts | 14° |
| 2026-04-26 00:00 | -26.60570 | 153.09058 | 23 ft | 0 kts | 13° |
| 2026-04-26 00:01 | -26.60569 | 153.09058 | 23 ft | 1 kts | 13° |
| 2026-04-26 00:02 | -26.60540 | 153.09067 | 23 ft | 7 kts | 21° |
| 2026-04-26 00:02 | -26.60488 | 153.09128 | 23 ft | 14 kts | 46° |
| 2026-04-26 00:02 | -26.60373 | 153.09174 | 23 ft | 21 kts | 8° |
| 2026-04-26 00:02 | -26.60241 | 153.09096 | 23 ft | 25 kts | 321° |
| 2026-04-26 00:03 | -26.60081 | 153.08957 | 23 ft | 33 kts | 323° |
| 2026-04-26 00:03 | -26.59875 | 153.08781 | 24 ft | 40 kts | 321° |
| 2026-04-26 00:03 | -26.59633 | 153.08574 | 24 ft | 47 kts | 322° |
| 2026-04-26 00:03 | -26.59356 | 153.08334 | 30 ft | 53 kts | 319° |
| 2026-04-26 00:04 | -26.59040 | 153.08064 | 28 ft | 60 kts | 322° |
| 2026-04-26 00:04 | -26.58747 | 153.07812 | 23 ft | 47 kts | 322° |
| 2026-04-26 00:04 | -26.58557 | 153.07651 | 20 ft | 20 kts | 323° |
| 2026-04-26 00:04 | -26.58457 | 153.07539 | 18 ft | 19 kts | 291° |
| 2026-04-26 00:05 | -26.58412 | 153.07434 | 17 ft | 12 kts | 324° |
| 2026-04-26 00:05 | -26.58367 | 153.07414 | 17 ft | 4 kts | 23° |
| 2026-04-26 00:05 | -26.58347 | 153.07445 | 17 ft | 4 kts | 74° |
| 2026-04-26 00:05 | -26.58351 | 153.07472 | 17 ft | 3 kts | 126° |
| 2026-04-26 00:06 | -26.58358 | 153.07480 | 17 ft | 0 kts | 143° |
| 2026-04-26 00:07 | -26.58525 | 153.07620 | 19 ft | 69 kts | 141° |
| 2026-04-26 00:07 | -26.59107 | 153.08124 | 32 ft | 140 kts | 143° |
| 2026-04-26 00:08 | -26.59925 | 153.08839 | 636 ft | 148 kts | 144° |
| 2026-04-26 00:08 | -26.60711 | 153.09540 | 1330 ft | 153 kts | 131° |
| 2026-04-26 00:08 | -26.61027 | 153.10700 | 1925 ft | 172 kts | 83° |
| 2026-04-26 00:08 | -26.60372 | 153.11871 | 2550 ft | 199 kts | 41° |
| 2026-04-26 00:09 | -26.58975 | 153.12338 | 3182 ft | 229 kts | 2° |
| 2026-04-26 00:09 | -26.57394 | 153.11723 | 3820 ft | 254 kts | 330° |
| 2026-04-26 00:09 | -26.55854 | 153.10672 | 4299 ft | 271 kts | 338° |
| 2026-04-26 00:09 | -26.54035 | 153.09898 | 4636 ft | 285 kts | 346° |
| 2026-04-26 00:10 | -26.52109 | 153.09255 | 5272 ft | 292 kts | 348° |
| 2026-04-26 00:10 | -26.50172 | 153.08644 | 6162 ft | 291 kts | 348° |
| 2026-04-26 00:10 | -26.48801 | 153.08217 | 6772 ft | 292 kts | 349° |
| 2026-04-26 00:10 | -26.47416 | 153.07790 | 7370 ft | 292 kts | 348° |
| 2026-04-26 00:14 | -26.46617 | 153.07542 | 7708 ft | 292 kts | 348° |
| 2026-04-26 00:15 | -26.44648 | 153.06934 | 8476 ft | 295 kts | 348° |
| 2026-04-26 00:15 | -26.42671 | 153.06322 | 9264 ft | 297 kts | 348° |
| 2026-04-26 00:15 | -26.40677 | 153.05704 | 10000 ft | 299 kts | 348° |
| 2026-04-26 00:15 | -26.38628 | 153.05070 | 10629 ft | 306 kts | 347° |
| 2026-04-26 00:16 | -26.36567 | 153.04433 | 11228 ft | 314 kts | 347° |
| 2026-04-26 00:16 | -26.34443 | 153.03777 | 11829 ft | 321 kts | 346° |
| 2026-04-26 00:16 | -26.32245 | 153.03096 | 12430 ft | 329 kts | 346° |
| 2026-04-26 00:16 | -26.30017 | 153.02406 | 13030 ft | 336 kts | 346° |
| 2026-04-26 00:17 | -26.27770 | 153.01712 | 13626 ft | 343 kts | 345° |
| 2026-04-26 00:17 | -26.25439 | 153.00990 | 14229 ft | 349 kts | 345° |
| 2026-04-26 00:17 | -26.23079 | 153.00259 | 14817 ft | 356 kts | 345° |
| 2026-04-26 00:17 | -26.20659 | 152.99513 | 15427 ft | 362 kts | 345° |
| 2026-04-26 00:18 | -26.18212 | 152.98758 | 15929 ft | 371 kts | 345° |
| 2026-04-26 00:18 | -26.15689 | 152.97980 | 16198 ft | 387 kts | 345° |
| 2026-04-26 00:18 | -26.13062 | 152.97170 | 16803 ft | 393 kts | 345° |
| 2026-04-26 00:18 | -26.10508 | 152.96068 | 17599 ft | 394 kts | 332° |
| 2026-04-26 00:19 | -26.08167 | 152.94438 | 18261 ft | 398 kts | 325° |
| 2026-04-26 00:19 | -26.05896 | 152.92616 | 18682 ft | 410 kts | 323° |
| 2026-04-26 00:19 | -26.03583 | 152.90709 | 19041 ft | 423 kts | 323° |
| 2026-04-26 00:19 | -26.01174 | 152.88734 | 19408 ft | 436 kts | 323° |
| 2026-04-26 00:20 | -25.98693 | 152.86722 | 19762 ft | 450 kts | 323° |
| 2026-04-26 00:20 | -25.96090 | 152.84624 | 20069 ft | 465 kts | 323° |
| 2026-04-26 00:20 | -25.93431 | 152.82489 | 20356 ft | 480 kts | 323° |
| 2026-04-26 00:20 | -25.90718 | 152.80318 | 21032 ft | 484 kts | 322° |
| 2026-04-26 00:21 | -25.87952 | 152.78104 | 21801 ft | 487 kts | 322° |
| 2026-04-26 00:21 | -25.85205 | 152.75905 | 22459 ft | 490 kts | 322° |
| 2026-04-26 00:21 | -25.82446 | 152.73695 | 23004 ft | 495 kts | 321° |
| 2026-04-26 00:21 | -25.79638 | 152.71449 | 23563 ft | 499 kts | 321° |
| 2026-04-26 00:22 | -25.76816 | 152.69192 | 24119 ft | 502 kts | 321° |
| 2026-04-26 00:22 | -25.73961 | 152.66911 | 24589 ft | 507 kts | 321° |
| 2026-04-26 00:22 | -25.71115 | 152.64639 | 25228 ft | 508 kts | 320° |
| 2026-04-26 00:22 | -25.68268 | 152.62369 | 26013 ft | 504 kts | 320° |
| 2026-04-26 00:23 | -25.65415 | 152.60097 | 26750 ft | 502 kts | 320° |
| 2026-04-26 00:23 | -25.62589 | 152.57846 | 27452 ft | 499 kts | 319° |
| 2026-04-26 00:23 | -25.59775 | 152.55605 | 28008 ft | 500 kts | 319° |
| 2026-04-26 00:23 | -25.56927 | 152.53336 | 28503 ft | 501 kts | 319° |
| 2026-04-26 00:24 | -25.54126 | 152.51106 | 28921 ft | 503 kts | 318° |
| 2026-04-26 00:24 | -25.51237 | 152.48808 | 29293 ft | 506 kts | 319° |
| 2026-04-26 00:24 | -25.48377 | 152.46535 | 29677 ft | 509 kts | 318° |
| 2026-04-26 00:24 | -25.45474 | 152.44229 | 30025 ft | 512 kts | 318° |
| 2026-04-26 00:25 | -25.42616 | 152.41962 | 30429 ft | 513 kts | 318° |
| 2026-04-26 00:25 | -25.39691 | 152.39642 | 30883 ft | 514 kts | 318° |
| 2026-04-26 00:25 | -25.36808 | 152.37357 | 31233 ft | 516 kts | 317° |
| 2026-04-26 00:25 | -25.33886 | 152.35045 | 31762 ft | 515 kts | 317° |
| 2026-04-26 00:26 | -25.30952 | 152.32736 | 32296 ft | 514 kts | 318° |
| 2026-04-26 00:26 | -25.28051 | 152.30472 | 32884 ft | 511 kts | 317° |
| 2026-04-26 00:26 | -25.25165 | 152.28215 | 33557 ft | 507 kts | 317° |
| 2026-04-26 00:26 | -25.22314 | 152.25980 | 34338 ft | 500 kts | 317° |
| 2026-04-26 00:27 | -25.19489 | 152.23761 | 35152 ft | 493 kts | 317° |
| 2026-04-26 00:27 | -25.16727 | 152.21582 | 35577 ft | 493 kts | 316° |
| 2026-04-26 00:27 | -25.13922 | 152.19365 | 35955 ft | 494 kts | 317° |
| 2026-04-26 00:27 | -25.11127 | 152.17154 | 36080 ft | 500 kts | 316° |
| 2026-04-26 00:28 | -25.08254 | 152.14882 | 36095 ft | 505 kts | 317° |
| 2026-04-26 00:28 | -25.02551 | 152.10390 | 36098 ft | 507 kts | 317° |
| 2026-04-26 00:29 | -24.96775 | 152.05862 | 36099 ft | 509 kts | 317° |
| 2026-04-26 00:29 | -24.91033 | 152.01372 | 36092 ft | 504 kts | 317° |
| 2026-04-26 00:30 | -24.85312 | 151.96898 | 36097 ft | 503 kts | 316° |
| 2026-04-26 00:30 | -24.79582 | 151.92415 | 36098 ft | 505 kts | 317° |
| 2026-04-26 00:31 | -24.73864 | 151.87952 | 36100 ft | 504 kts | 317° |
| 2026-04-26 00:31 | -24.68147 | 151.83496 | 36098 ft | 502 kts | 316° |
| 2026-04-26 00:32 | -24.62426 | 151.79040 | 36095 ft | 503 kts | 316° |
| 2026-04-26 00:32 | -24.53869 | 151.72386 | 36096 ft | 503 kts | 316° |
| 2026-04-26 00:33 | -24.48152 | 151.67947 | 36097 ft | 502 kts | 316° |
| 2026-04-26 00:33 | -24.42451 | 151.63527 | 36097 ft | 499 kts | 316° |
| 2026-04-26 00:34 | -24.36789 | 151.59140 | 36100 ft | 499 kts | 316° |
| 2026-04-26 00:34 | -24.31120 | 151.54752 | 36104 ft | 499 kts | 316° |
| 2026-04-26 00:35 | -24.25466 | 151.50380 | 36105 ft | 499 kts | 316° |
| 2026-04-26 00:35 | -24.19758 | 151.45976 | 36105 ft | 497 kts | 316° |
| 2026-04-26 00:36 | -24.14126 | 151.41632 | 36099 ft | 495 kts | 316° |
| 2026-04-26 00:36 | -24.08479 | 151.37280 | 36092 ft | 495 kts | 316° |
| 2026-04-26 00:37 | -24.02859 | 151.32964 | 36082 ft | 496 kts | 317° |
| 2026-04-26 00:37 | -23.97173 | 151.28656 | 36085 ft | 496 kts | 317° |
| 2026-04-26 00:38 | -23.91529 | 151.24330 | 36092 ft | 496 kts | 316° |
| 2026-04-26 00:38 | -23.85895 | 151.20026 | 36092 ft | 497 kts | 318° |
| 2026-04-26 00:39 | -23.79937 | 151.16095 | 36093 ft | 499 kts | 322° |
| 2026-04-26 00:39 | -23.73905 | 151.12311 | 36091 ft | 501 kts | 322° |
| 2026-04-26 00:40 | -23.67927 | 151.08517 | 36087 ft | 497 kts | 321° |
| 2026-04-26 00:40 | -23.61937 | 151.04684 | 36085 ft | 497 kts | 321° |
| 2026-04-26 00:41 | -23.55982 | 151.00867 | 36084 ft | 498 kts | 321° |
| 2026-04-26 00:41 | -23.50015 | 150.97046 | 36077 ft | 497 kts | 321° |
| 2026-04-26 00:42 | -23.44057 | 150.93237 | 36078 ft | 496 kts | 321° |
| 2026-04-26 00:42 | -23.38095 | 150.89430 | 36073 ft | 494 kts | 321° |
| 2026-04-26 00:43 | -23.32184 | 150.85658 | 36073 ft | 494 kts | 321° |
| 2026-04-26 00:43 | -23.26234 | 150.81863 | 36072 ft | 494 kts | 321° |
| 2026-04-26 00:44 | -23.20312 | 150.78093 | 36073 ft | 494 kts | 321° |
| 2026-04-26 00:44 | -23.14383 | 150.74321 | 36071 ft | 494 kts | 321° |
| 2026-04-26 00:45 | -23.08469 | 150.70566 | 36072 ft | 490 kts | 321° |
| 2026-04-26 00:45 | -23.02584 | 150.66829 | 36073 ft | 491 kts | 321° |
| 2026-04-26 00:46 | -22.96694 | 150.63092 | 36077 ft | 491 kts | 321° |
| 2026-04-26 00:46 | -22.90786 | 150.59351 | 36074 ft | 490 kts | 321° |
| 2026-04-26 00:47 | -22.84899 | 150.55623 | 36066 ft | 490 kts | 321° |
| 2026-04-26 00:47 | -22.79111 | 150.51965 | 36070 ft | 488 kts | 321° |
| 2026-04-26 00:48 | -22.73249 | 150.48261 | 36075 ft | 490 kts | 321° |
| 2026-04-26 00:48 | -22.67338 | 150.44530 | 36069 ft | 489 kts | 321° |
| 2026-04-26 00:49 | -22.61478 | 150.40840 | 36076 ft | 488 kts | 321° |
| 2026-04-26 00:49 | -22.55594 | 150.37132 | 36060 ft | 489 kts | 321° |
| 2026-04-26 00:50 | -22.49684 | 150.33423 | 36066 ft | 491 kts | 322° |
| 2026-04-26 00:50 | -22.43780 | 150.29752 | 36069 ft | 490 kts | 322° |
| 2026-04-26 00:51 | -22.37904 | 150.26083 | 36063 ft | 488 kts | 322° |
| 2026-04-26 00:51 | -22.32048 | 150.22417 | 36060 ft | 486 kts | 322° |
| 2026-04-26 00:52 | -22.26206 | 150.18751 | 36069 ft | 485 kts | 321° |
| 2026-04-26 00:52 | -22.20379 | 150.14958 | 36051 ft | 488 kts | 321° |
| 2026-04-26 00:53 | -22.14617 | 150.11173 | 36044 ft | 484 kts | 320° |
| 2026-04-26 00:53 | -22.08856 | 150.07400 | 36046 ft | 483 kts | 320° |
| 2026-04-26 00:54 | -22.03132 | 150.03662 | 36040 ft | 484 kts | 320° |
| 2026-04-26 00:54 | -21.97333 | 149.99880 | 36045 ft | 485 kts | 320° |
| 2026-04-26 00:55 | -21.91558 | 149.96118 | 36042 ft | 486 kts | 320° |
| 2026-04-26 00:55 | -21.85818 | 149.92383 | 35952 ft | 486 kts | 320° |
| 2026-04-26 00:56 | -21.82931 | 149.90508 | 35312 ft | 481 kts | 321° |
| 2026-04-26 00:56 | -21.80100 | 149.88672 | 34611 ft | 476 kts | 321° |
| 2026-04-26 00:56 | -21.77233 | 149.86807 | 33901 ft | 478 kts | 321° |
| 2026-04-26 00:56 | -21.74396 | 149.84963 | 33173 ft | 478 kts | 322° |
| 2026-04-26 00:57 | -21.71550 | 149.83116 | 32426 ft | 475 kts | 322° |
| 2026-04-26 00:57 | -21.68748 | 149.81300 | 31688 ft | 471 kts | 322° |
| 2026-04-26 00:57 | -21.65961 | 149.79495 | 30951 ft | 467 kts | 322° |
| 2026-04-26 00:57 | -21.63183 | 149.77695 | 30211 ft | 463 kts | 323° |
| 2026-04-26 00:58 | -21.60455 | 149.75929 | 29486 ft | 460 kts | 323° |
| 2026-04-26 00:58 | -21.57719 | 149.74158 | 28760 ft | 456 kts | 323° |
| 2026-04-26 00:58 | -21.55022 | 149.72412 | 28046 ft | 453 kts | 323° |
| 2026-04-26 00:58 | -21.52338 | 149.70676 | 27331 ft | 450 kts | 323° |
| 2026-04-26 00:59 | -21.49651 | 149.68939 | 26614 ft | 447 kts | 323° |
| 2026-04-26 00:59 | -21.46983 | 149.67213 | 25991 ft | 443 kts | 324° |
| 2026-04-26 00:59 | -21.44360 | 149.65521 | 25392 ft | 438 kts | 323° |
| 2026-04-26 00:59 | -21.41755 | 149.63838 | 24794 ft | 434 kts | 323° |
| 2026-04-26 01:00 | -21.39215 | 149.62199 | 24208 ft | 429 kts | 324° |
| 2026-04-26 01:00 | -21.36653 | 149.60545 | 23617 ft | 425 kts | 324° |
| 2026-04-26 01:00 | -21.34119 | 149.58910 | 23029 ft | 421 kts | 324° |
| 2026-04-26 01:00 | -21.31647 | 149.57317 | 22491 ft | 417 kts | 324° |
| 2026-04-26 01:01 | -21.29153 | 149.55707 | 22013 ft | 414 kts | 324° |
| 2026-04-26 01:01 | -21.26640 | 149.54083 | 21538 ft | 432 kts | 324° |
| 2026-04-26 01:01 | -21.24047 | 149.52406 | 21062 ft | 441 kts | 324° |
| 2026-04-26 01:01 | -21.21406 | 149.50707 | 20483 ft | 439 kts | 324° |
| 2026-04-26 01:02 | -21.18798 | 149.49033 | 19878 ft | 435 kts | 325° |
| 2026-04-26 01:02 | -21.16207 | 149.47369 | 19273 ft | 433 kts | 325° |
| 2026-04-26 01:02 | -21.13641 | 149.45720 | 18676 ft | 431 kts | 325° |
| 2026-04-26 01:02 | -21.11096 | 149.44086 | 18192 ft | 429 kts | 325° |
| 2026-04-26 01:03 | -21.08526 | 149.42435 | 17703 ft | 428 kts | 325° |
| 2026-04-26 01:03 | -21.05966 | 149.40791 | 17222 ft | 427 kts | 326° |
| 2026-04-26 01:03 | -21.03454 | 149.39178 | 16748 ft | 424 kts | 326° |
| 2026-04-26 01:03 | -21.00932 | 149.37561 | 16267 ft | 422 kts | 326° |
| 2026-04-26 01:04 | -20.98424 | 149.35953 | 15787 ft | 419 kts | 326° |
| 2026-04-26 01:04 | -20.95954 | 149.34372 | 15309 ft | 416 kts | 327° |
| 2026-04-26 01:04 | -20.93449 | 149.32779 | 14819 ft | 414 kts | 327° |
| 2026-04-26 01:04 | -20.90992 | 149.31218 | 14337 ft | 410 kts | 327° |
| 2026-04-26 01:05 | -20.88545 | 149.29658 | 13850 ft | 407 kts | 327° |
| 2026-04-26 01:05 | -20.86121 | 149.28111 | 13410 ft | 400 kts | 327° |
| 2026-04-26 01:05 | -20.83783 | 149.26617 | 13129 ft | 388 kts | 327° |
| 2026-04-26 01:05 | -20.81490 | 149.25151 | 12822 ft | 378 kts | 327° |
| 2026-04-26 01:06 | -20.79251 | 149.23718 | 12517 ft | 369 kts | 327° |
| 2026-04-26 01:06 | -20.77082 | 149.22330 | 12213 ft | 361 kts | 328° |
| 2026-04-26 01:06 | -20.74951 | 149.20966 | 11906 ft | 353 kts | 328° |
| 2026-04-26 01:06 | -20.72835 | 149.19614 | 11494 ft | 349 kts | 328° |
| 2026-04-26 01:07 | -20.70775 | 149.18297 | 11080 ft | 346 kts | 328° |
| 2026-04-26 01:07 | -20.68708 | 149.16977 | 10661 ft | 343 kts | 329° |
| 2026-04-26 01:07 | -20.66672 | 149.15677 | 10213 ft | 335 kts | 329° |
| 2026-04-26 01:07 | -20.64725 | 149.14433 | 9801 ft | 319 kts | 329° |
| 2026-04-26 01:08 | -20.62839 | 149.13228 | 9405 ft | 310 kts | 330° |
| 2026-04-26 01:08 | -20.61008 | 149.12062 | 9007 ft | 309 kts | 330° |
| 2026-04-26 01:08 | -20.59158 | 149.10884 | 8607 ft | 308 kts | 330° |
| 2026-04-26 01:08 | -20.57303 | 149.09703 | 8206 ft | 308 kts | 330° |
| 2026-04-26 01:09 | -20.55488 | 149.08548 | 7809 ft | 307 kts | 330° |
| 2026-04-26 01:09 | -20.53639 | 149.07371 | 7408 ft | 307 kts | 330° |
| 2026-04-26 01:09 | -20.51815 | 149.06209 | 7011 ft | 306 kts | 330° |
| 2026-04-26 01:09 | -20.49973 | 149.05037 | 6608 ft | 305 kts | 331° |
| 2026-04-26 01:10 | -20.48148 | 149.03877 | 6229 ft | 304 kts | 330° |
| 2026-04-26 01:10 | -20.46350 | 149.02733 | 5885 ft | 302 kts | 331° |
| 2026-04-26 01:10 | -20.44554 | 149.01593 | 5554 ft | 299 kts | 330° |
| 2026-04-26 01:10 | -20.42750 | 149.00446 | 5227 ft | 296 kts | 331° |
| 2026-04-26 01:11 | -20.41001 | 148.99333 | 4911 ft | 294 kts | 331° |
| 2026-04-26 01:11 | -20.39238 | 148.98213 | 4582 ft | 292 kts | 331° |
| 2026-04-26 01:11 | -20.37508 | 148.97115 | 4256 ft | 290 kts | 331° |
| 2026-04-26 01:11 | -20.35760 | 148.96141 | 3897 ft | 274 kts | 347° |
| 2026-04-26 01:12 | -20.33929 | 148.96005 | 3575 ft | 254 kts | 11° |
| 2026-04-26 01:12 | -20.32271 | 148.96317 | 3508 ft | 230 kts | 16° |
| 2026-04-26 01:12 | -20.30768 | 148.96666 | 3517 ft | 211 kts | 17° |
| 2026-04-26 01:12 | -20.29399 | 148.96997 | 3532 ft | 196 kts | 18° |
| 2026-04-26 01:13 | -20.28110 | 148.97313 | 3517 ft | 176 kts | 19° |
| 2026-04-26 01:13 | -20.26984 | 148.97588 | 3491 ft | 164 kts | 17° |
| 2026-04-26 01:13 | -20.25810 | 148.97609 | 3511 ft | 167 kts | 356° |
| 2026-04-26 01:13 | -20.24666 | 148.97261 | 3480 ft | 176 kts | 339° |
| 2026-04-26 01:14 | -20.23640 | 148.96570 | 3455 ft | 177 kts | 320° |
| 2026-04-26 01:14 | -20.22834 | 148.95570 | 3410 ft | 177 kts | 301° |
| 2026-04-26 01:14 | -20.22343 | 148.94379 | 3271 ft | 175 kts | 282° |
| 2026-04-26 01:14 | -20.22199 | 148.93085 | 2934 ft | 178 kts | 263° |
| 2026-04-26 01:15 | -20.22411 | 148.91812 | 2586 ft | 172 kts | 245° |
| 2026-04-26 01:15 | -20.22932 | 148.90707 | 2335 ft | 161 kts | 228° |
| 2026-04-26 01:15 | -20.23655 | 148.89861 | 2112 ft | 152 kts | 212° |
| 2026-04-26 01:15 | -20.24509 | 148.89265 | 1975 ft | 144 kts | 198° |
| 2026-04-26 01:16 | -20.25454 | 148.88910 | 1846 ft | 140 kts | 185° |
| 2026-04-26 01:16 | -20.26411 | 148.88803 | 1689 ft | 138 kts | 173° |
| 2026-04-26 01:16 | -20.27345 | 148.88927 | 1555 ft | 132 kts | 162° |
| 2026-04-26 01:16 | -20.28218 | 148.89267 | 1523 ft | 132 kts | 151° |
| 2026-04-26 01:17 | -20.29005 | 148.89803 | 1451 ft | 133 kts | 142° |
| 2026-04-26 01:17 | -20.29735 | 148.90372 | 1353 ft | 132 kts | 142° |
| 2026-04-26 01:17 | -20.30475 | 148.90953 | 1269 ft | 126 kts | 142° |
| 2026-04-26 01:17 | -20.31199 | 148.91527 | 1170 ft | 131 kts | 142° |
| 2026-04-26 01:18 | -20.31938 | 148.92119 | 969 ft | 131 kts | 141° |
| 2026-04-26 01:18 | -20.32646 | 148.92722 | 740 ft | 132 kts | 142° |
| 2026-04-26 01:18 | -20.33380 | 148.93277 | 518 ft | 128 kts | 145° |
| 2026-04-26 01:18 | -20.34099 | 148.93843 | 310 ft | 130 kts | 143° |
| 2026-04-26 01:19 | -20.34815 | 148.94418 | 131 ft | 124 kts | 143° |
| 2026-04-26 01:19 | -20.35476 | 148.94948 | 31 ft | 112 kts | 143° |
| 2026-04-26 01:19 | -20.35942 | 148.95319 | 30 ft | 52 kts | 143° |
| 2026-04-26 01:19 | -20.36136 | 148.95474 | 30 ft | 30 kts | 143° |
| 2026-04-26 01:20 | -20.36298 | 148.95604 | 30 ft | 21 kts | 144° |
| 2026-04-26 01:20 | -20.36387 | 148.95631 | 30 ft | 6 kts | 170° |
| 2026-04-26 01:20 | -20.36396 | 148.95664 | 29 ft | 7 kts | 30° |
| 2026-04-26 01:20 | -20.36317 | 148.95621 | 30 ft | 23 kts | 322° |
| 2026-04-26 01:21 | -20.36138 | 148.95476 | 30 ft | 36 kts | 323° |
| 2026-04-26 01:21 | -20.35906 | 148.95291 | 30 ft | 44 kts | 323° |
| 2026-04-26 01:21 | -20.35673 | 148.95103 | 30 ft | 34 kts | 323° |
| 2026-04-26 01:21 | -20.35499 | 148.94963 | 30 ft | 16 kts | 323° |
| 2026-04-26 01:22 | -20.35419 | 148.94925 | 30 ft | 8 kts | 27° |
| 2026-04-26 01:22 | -20.35391 | 148.94960 | 31 ft | 4 kts | 53° |
| 2026-04-26 01:22 | -20.35374 | 148.94984 | 32 ft | 4 kts | 54° |
| 2026-04-26 01:22 | -20.35353 | 148.95013 | 33 ft | 4 kts | 36° |
| 2026-04-26 01:23 | -20.35325 | 148.95021 | 34 ft | 4 kts | 8° |
| 2026-04-26 01:23 | -20.35303 | 148.95023 | 34 ft | 2 kts | 3° |
| 2026-04-26 01:23 | -20.35299 | 148.95023 | 34 ft | 0 kts | 2° |
| 2026-04-26 01:23 | -20.35296 | 148.95023 | 34 ft | 0 kts | 2° |